Time;durP1;ratioP1;P1;durP2;ratioP2;P2;SDS_P1;SDS_P2;PMS_P1;PMS_P2;Temp;Humidity;BMP_temperature;BMP_pressure;BME280_temperature;BME280_humidity;BME280_pressure;Samples;Min_cycle;Max_cycle;Signal;HPM_P1;HPM_P2
2022/04/13 07:58:51;;;;;;;23.02;19.77;;;;;;;14.08;81.63;101429.38;5328607;27;20384;-74
2022/04/13 08:01:22;;;;;;;23.08;18.63;;;;;;;14.11;80.93;101430.72;5322376;28;20035;-76
2022/04/13 08:03:54;;;;;;;21.60;18.98;;;;;;;14.22;81.25;101437.03;5318919;28;20016;-73
2022/04/13 08:06:25;;;;;;;22.25;19.05;;;;;;;14.41;80.56;101434.22;5321769;28;20024;-80
2022/04/13 08:08:56;;;;;;;21.73;18.67;;;;;;;14.49;79.85;101437.16;5303908;28;20437;-80
2022/04/13 08:11:28;;;;;;;23.40;17.95;;;;;;;14.51;79.46;101442.44;5314402;28;20024;-82
2022/04/13 08:13:59;;;;;;;21.08;17.55;;;;;;;14.52;80.04;101446.88;5313468;28;20021;-82
2022/04/13 08:16:30;;;;;;;20.60;17.08;;;;;;;14.66;79.22;101442.25;5299019;28;20032;-78
2022/04/13 08:19:01;;;;;;;23.15;17.15;;;;;;;14.77;78.74;101442.91;5321981;28;20370;-75
2022/04/13 08:21:33;;;;;;;23.45;14.85;;;;;;;14.75;77.85;101440.44;5321204;28;20027;-80
2022/04/13 08:24:05;;;;;;;22.90;14.80;;;;;;;14.65;78.22;101451.78;5314890;28;20021;-78
2022/04/13 08:26:36;;;;;;;16.38;13.90;;;;;;;14.71;78.20;101456.13;5320523;28;20036;-79
2022/04/13 08:29:08;;;;;;;21.05;18.95;;;;;;;14.76;77.86;101458.84;5308352;28;20425;-81
2022/04/13 08:31:39;;;;;;;17.60;13.93;;;;;;;14.79;78.08;101461.03;5305506;28;20126;-79
2022/04/13 08:34:10;;;;;;;15.38;12.95;;;;;;;14.74;77.90;101458.31;5321554;28;20069;-80
2022/04/13 08:36:42;;;;;;;16.08;11.65;;;;;;;14.72;77.32;101465.34;5320725;28;20020;-78
2022/04/13 08:39:16;;;;;;;16.30;12.43;;;;;;;14.79;77.68;101463.00;5321905;28;20023;-81
2022/04/13 08:41:50;;;;;;;17.25;13.65;;;;;;;14.82;77.36;101461.56;5302662;28;20074;-80
2022/04/13 08:44:29;;;;;;;17.25;12.40;;;;;;;14.93;77.56;101461.09;5317571;28;20016;-80
2022/04/13 08:47:10;;;;;;;14.40;11.73;;;;;;;14.93;77.40;101469.47;5318937;28;20080;-79
2022/04/13 08:49:44;;;;;;;13.80;11.40;;;;;;;14.96;76.55;101470.84;5323939;28;20041;-84
2022/04/13 08:52:36;;;;;;;16.42;11.10;;;;;;;14.97;76.79;101469.69;5324801;28;20053;-85
2022/04/13 08:55:09;;;;;;;17.98;10.70;;;;;;;14.93;76.55;101469.47;5327907;28;20035;-84
2022/04/13 08:57:47;;;;;;;23.38;12.35;;;;;;;15.00;76.92;101469.06;5324430;28;20052;-84
2022/04/13 09:00:19;;;;;;;16.95;12.18;;;;;;;15.06;76.90;101473.47;5311696;28;20027;-83
2022/04/13 09:03:15;;;;;;;16.40;12.48;;;;;;;15.15;76.64;101479.16;5318517;28;20475;-81
2022/04/13 09:05:55;;;;;;;25.80;19.17;;;;;;;15.14;76.66;101485.91;5317720;28;20378;-79
2022/04/13 09:08:35;;;;;;;17.60;15.48;;;;;;;15.20;76.67;101485.50;5316184;28;20047;-78
2022/04/13 09:11:07;;;;;;;19.83;14.35;;;;;;;15.19;76.45;101483.84;5297048;28;20025;-78
2022/04/13 09:13:39;;;;;;;18.88;14.50;;;;;;;15.20;75.80;101488.28;5303426;28;20020;-79
2022/04/13 09:16:12;;;;;;;16.98;13.65;;;;;;;15.28;75.85;101497.94;5301151;28;20032;-80
2022/04/13 09:18:44;;;;;;;16.55;14.48;;;;;;;15.32;75.58;101493.41;5305723;28;20062;-79
2022/04/13 09:21:20;;;;;;;19.95;16.02;;;;;;;15.43;76.22;101506.06;5303719;28;20070;-77
2022/04/13 09:23:51;;;;;;;20.40;16.00;;;;;;;15.43;75.88;101502.44;5306132;28;20039;-77
2022/04/13 09:26:24;;;;;;;16.88;15.05;;;;;;;15.45;75.65;101502.97;5306437;28;20024;-77
2022/04/13 09:28:55;;;;;;;19.77;15.38;;;;;;;15.42;75.93;101511.97;5306265;28;20043;-77
2022/04/13 09:31:27;;;;;;;18.88;16.08;;;;;;;15.50;75.62;101513.22;5305611;28;20402;-77
2022/04/13 09:33:58;;;;;;;19.10;17.10;;;;;;;15.54;75.51;101517.88;5292081;28;20020;-77
2022/04/13 09:36:30;;;;;;;19.52;16.38;;;;;;;15.56;75.42;101525.97;5293925;28;20032;-78
2022/04/13 09:39:01;;;;;;;17.55;15.75;;;;;;;15.62;74.91;101522.78;5295789;28;20111;-76
2022/04/13 09:41:35;;;;;;;15.60;13.88;;;;;;;15.66;75.33;101522.97;5291704;28;20032;-78
2022/04/13 09:44:13;;;;;;;43.25;38.70;;;;;;;15.60;74.77;101522.25;5290974;28;20017;-76
2022/04/13 09:46:45;;;;;;;29.65;26.42;;;;;;;15.63;74.78;101524.44;5298778;28;20032;-77
2022/04/13 09:49:18;;;;;;;18.83;17.02;;;;;;;15.57;74.92;101531.25;5299866;28;20103;-77
2022/04/13 09:51:50;;;;;;;17.92;16.02;;;;;;;15.62;75.02;101531.19;5305351;28;20024;-76
2022/04/13 09:54:25;;;;;;;22.00;18.08;;;;;;;15.60;75.20;101533.44;5287603;28;20116;-78
2022/04/13 09:56:56;;;;;;;22.37;18.03;;;;;;;15.60;75.24;101530.66;5288920;28;20052;-79
2022/04/13 09:59:31;;;;;;;21.63;17.88;;;;;;;15.56;75.16;101532.38;5305646;28;20061;-82
2022/04/13 10:02:03;;;;;;;19.42;17.40;;;;;;;15.63;75.15;101527.22;5292917;28;20500;-81
2022/04/13 10:04:36;;;;;;;19.85;15.77;;;;;;;15.66;74.98;101529.41;5302472;28;20028;-80
2022/04/13 10:07:16;;;;;;;19.45;17.38;;;;;;;15.70;74.97;101531.59;5290350;28;20024;-80
2022/04/13 10:09:48;;;;;;;19.52;17.50;;;;;;;15.69;75.71;101527.13;5286208;28;20079;-81
2022/04/13 10:12:23;;;;;;;20.25;17.85;;;;;;;15.63;75.33;101532.00;5286326;28;20047;-82
2022/04/13 10:15:07;;;;;;;20.30;17.23;;;;;;;15.66;75.15;101528.56;5304184;28;20085;-84
2022/04/13 10:17:39;;;;;;;20.20;17.23;;;;;;;15.63;75.64;101530.03;5291729;28;20072;-85
2022/04/13 10:20:10;;;;;;;20.90;18.85;;;;;;;15.64;75.23;101537.25;5288839;28;20452;-82
2022/04/13 10:23:04;;;;;;;24.05;17.20;;;;;;;15.69;75.41;101533.59;5292512;28;20027;-85
2022/04/13 10:25:36;;;;;;;21.77;18.75;;;;;;;15.65;75.27;101540.91;5304508;28;20089;-80
2022/04/13 10:28:07;;;;;;;19.50;16.77;;;;;;;15.67;75.58;101533.03;5287612;28;20053;-84
2022/04/13 10:30:41;;;;;;;19.48;17.33;;;;;;;15.67;75.42;101544.22;5307260;28;20020;-83
2022/04/13 10:33:14;;;;;;;20.52;18.45;;;;;;;15.57;75.35;101541.59;5305827;28;20467;-80
2022/04/13 10:35:45;;;;;;;21.92;18.35;;;;;;;15.55;75.86;101536.31;5293873;28;20502;-81
2022/04/13 10:38:17;;;;;;;29.30;26.25;;;;;;;15.49;76.44;101543.13;5294869;28;20028;-82
2022/04/13 10:40:53;;;;;;;20.65;16.48;;;;;;;15.51;76.95;101545.63;5287236;28;20492;-79
2022/04/13 10:43:26;;;;;;;19.98;16.73;;;;;;;15.58;77.51;101557.25;5294422;28;20391;-82
2022/04/13 10:45:58;;;;;;;19.23;17.23;;;;;;;15.53;77.10;101551.75;5279753;28;20032;-83
2022/04/13 10:48:32;;;;;;;20.45;18.27;;;;;;;15.56;77.04;101549.16;5305829;28;20028;-83
2022/04/13 10:51:12;;;;;;;21.52;17.95;;;;;;;15.53;77.16;101551.75;5305679;28;20024;-83
2022/04/13 10:53:52;;;;;;;23.00;19.90;;;;;;;15.60;77.50;101555.81;5307005;28;20023;-83
2022/04/13 10:56:27;;;;;;;22.13;18.98;;;;;;;15.61;78.01;101568.63;5305030;28;20023;-77
2022/04/13 10:59:20;;;;;;;22.42;20.05;;;;;;;15.65;78.55;101572.50;5285579;28;20383;-76
2022/04/13 11:02:28;;;;;;;24.88;19.55;;;;;;;15.66;78.18;101571.34;5300651;28;20020;-82
2022/04/13 11:05:00;;;;;;;22.23;20.20;;;;;;;15.63;78.39;101577.56;5289976;28;20512;-81
2022/04/13 11:07:37;;;;;;;23.73;21.35;;;;;;;15.53;78.51;101583.31;5299244;28;20028;-80
2022/04/13 11:10:16;;;;;;;25.33;21.23;;;;;;;15.44;78.64;101574.81;5298497;28;20039;-76
2022/04/13 11:12:48;;;;;;;25.95;22.88;;;;;;;15.36;79.00;101583.88;5296600;28;20032;-84
2022/04/13 11:15:46;;;;;;;25.10;22.40;;;;;;;15.41;78.92;101577.38;5287443;28;20036;-82
2022/04/13 11:18:20;;;;;;;33.22;29.73;;;;;;;15.31;79.01;101581.16;5302174;28;20027;-83
2022/04/13 11:21:07;;;;;;;29.08;26.02;;;;;;;15.36;78.86;101577.44;5305101;28;20024;-83
2022/04/13 11:23:48;;;;;;;32.95;29.52;;;;;;;15.23;79.09;101579.88;5300388;28;20032;-83
2022/04/13 11:26:34;;;;;;;29.70;26.25;;;;;;;15.24;79.63;101575.16;5305315;28;20042;-83
2022/04/13 11:29:21;;;;;;;27.48;23.38;;;;;;;15.37;79.71;101570.75;5290531;28;20027;-84
2022/04/13 11:32:10;;;;;;;28.30;25.40;;;;;;;15.35;79.70;101593.41;5291144;28;20030;-83
2022/04/13 11:34:50;;;;;;;27.77;25.17;;;;;;;15.35;79.63;101589.78;5287966;28;20041;-85
2022/04/13 11:37:40;;;;;;;26.15;23.70;;;;;;;15.27;79.58;101591.28;5294869;28;20089;-81
2022/04/13 11:40:22;;;;;;;26.02;23.25;;;;;;;15.23;79.48;101590.22;5299067;28;20020;-84
2022/04/13 11:42:53;;;;;;;26.90;24.20;;;;;;;15.20;79.63;101586.06;5305148;28;20032;-83
2022/04/13 11:45:25;;;;;;;26.67;23.90;;;;;;;15.31;79.92;101597.09;5300059;28;20546;-82
2022/04/13 11:47:59;;;;;;;28.95;23.60;;;;;;;15.27;80.05;101596.88;5300556;28;20038;-83
2022/04/13 11:50:36;;;;;;;27.00;23.08;;;;;;;15.20;79.93;101602.84;5306446;28;20020;-80
2022/04/13 11:53:14;;;;;;;27.63;22.75;;;;;;;15.33;80.03;101606.00;5296204;28;20056;-82
2022/04/13 11:55:46;;;;;;;31.92;25.83;;;;;;;15.39;80.26;101607.56;5296554;28;20429;-84
2022/04/13 11:58:21;;;;;;;27.77;24.90;;;;;;;15.38;80.09;101603.13;5307273;28;20043;-80
2022/04/13 12:00:57;;;;;;;28.77;25.55;;;;;;;15.40;79.50;101607.28;5305834;28;20032;-81
2022/04/13 12:03:40;;;;;;;29.90;26.75;;;;;;;15.37;78.94;101612.66;5306889;28;20114;-81
2022/04/13 12:06:18;;;;;;;35.47;29.25;;;;;;;15.38;78.96;101611.53;5288452;28;20056;-79
2022/04/13 12:08:55;;;;;;;28.42;25.40;;;;;;;15.40;79.48;101617.66;5303355;28;20023;-78
2022/04/13 12:11:45;;;;;;;27.52;24.63;;;;;;;15.42;79.36;101615.38;5298036;28;20379;-79
2022/04/13 12:14:27;;;;;;;44.90;39.78;;;;;;;15.33;79.05;101611.59;5283078;28;20128;-79
2022/04/13 12:17:02;;;;;;;65.38;58.35;;;;;;;15.32;79.18;101619.16;5294718;28;20463;-80
2022/04/13 12:19:42;;;;;;;59.53;50.75;;;;;;;15.28;79.18;101614.47;5302495;28;20024;-80
2022/04/13 12:22:14;;;;;;;41.90;37.08;;;;;;;15.40;78.91;101612.06;5266028;28;20062;-79
2022/04/13 12:25:02;;;;;;;27.45;24.45;;;;;;;15.46;78.54;101608.03;5293740;28;20101;-80
2022/04/13 12:27:37;;;;;;;30.25;26.42;;;;;;;15.46;78.01;101613.63;5283107;28;20025;-79
2022/04/13 12:30:18;;;;;;;28.08;24.98;;;;;;;15.29;77.83;101604.94;5272500;28;20056;-79
2022/04/13 12:32:49;;;;;;;27.70;24.35;;;;;;;15.31;77.95;101613.88;5296218;28;20028;-77
2022/04/13 12:35:20;;;;;;;26.52;23.80;;;;;;;15.47;77.90;101611.66;5289614;28;20028;-80
2022/04/13 12:37:54;;;;;;;25.48;22.38;;;;;;;15.52;77.85;101609.63;5293396;28;20490;-83
2022/04/13 12:40:26;;;;;;;24.30;21.83;;;;;;;15.43;77.10;101606.69;5290906;28;20089;-79
2022/04/13 12:42:57;;;;;;;26.30;22.63;;;;;;;15.51;77.36;101616.34;5304783;28;20035;-87
2022/04/13 12:45:29;;;;;;;24.20;21.77;;;;;;;15.44;77.49;101613.09;5303782;28;20020;-84
2022/04/13 12:48:08;;;;;;;22.88;20.45;;;;;;;15.41;77.20;101614.53;5307558;28;20095;-83
2022/04/13 12:50:54;;;;;;;23.05;19.42;;;;;;;15.48;78.03;101614.16;5286995;28;20111;-83
2022/04/13 12:53:27;;;;;;;22.65;17.92;;;;;;;15.46;77.93;101613.63;5298335;28;20114;-80
2022/04/13 12:55:58;;;;;;;18.67;16.25;;;;;;;15.33;78.17;101618.00;5294239;28;20440;-81
2022/04/13 12:58:37;;;;;;;18.20;16.33;;;;;;;15.37;78.19;101612.66;5292152;28;20044;-80
2022/04/13 13:01:10;;;;;;;19.90;16.83;;;;;;;15.30;79.08;101615.00;5296195;28;20033;-81
2022/04/13 13:03:41;;;;;;;22.10;17.90;;;;;;;15.29;78.59;101622.56;5298714;28;20035;-79
2022/04/13 13:06:13;;;;;;;22.75;19.70;;;;;;;15.31;78.97;101620.28;5307610;28;20012;-78
2022/04/13 13:08:56;;;;;;;21.92;18.40;;;;;;;15.31;80.42;101619.44;5303567;28;20020;-79
2022/04/13 13:11:31;;;;;;;21.88;18.55;;;;;;;15.23;82.08;101623.75;5306279;28;20032;-79
2022/04/13 13:14:13;;;;;;;21.38;18.10;;;;;;;15.26;81.34;101620.34;5276892;28;20028;-77
2022/04/13 13:16:46;;;;;;;22.65;19.88;;;;;;;15.31;81.74;101623.06;5299210;28;20038;-80
2022/04/13 13:19:20;;;;;;;22.35;19.23;;;;;;;15.34;82.69;101630.03;5303801;28;20047;-83
2022/04/13 13:22:15;;;;;;;20.23;18.13;;;;;;;15.40;81.81;101632.44;5307042;28;20374;-78
2022/04/13 13:24:48;;;;;;;18.55;16.48;;;;;;;15.33;81.65;101640.38;5299356;28;20028;-80
2022/04/13 13:27:28;;;;;;;19.58;17.08;;;;;;;15.27;82.09;101649.97;5306729;28;20032;-80
2022/04/13 13:30:19;;;;;;;18.90;16.90;;;;;;;15.22;82.89;101658.44;5300815;28;20035;-81
2022/04/13 13:32:53;;;;;;;20.77;16.40;;;;;;;15.06;83.44;101660.63;5282247;28;20036;-81
2022/04/13 13:35:30;;;;;;;18.88;16.85;;;;;;;15.14;84.57;101668.31;5298075;28;20387;-80
2022/04/13 13:38:19;;;;;;;20.40;18.30;;;;;;;15.13;86.54;101669.44;5301478;28;20031;-80
2022/04/13 13:40:53;;;;;;;19.50;17.48;;;;;;;15.12;86.14;101666.97;5306444;28;20348;-78
2022/04/13 13:43:27;;;;;;;61.70;55.05;;;;;;;15.15;86.28;101667.19;5306427;28;20051;-79
2022/04/13 13:45:59;;;;;;;52.58;46.95;;;;;;;15.11;86.48;101665.28;5293996;28;20062;-79
2022/04/13 13:48:30;;;;;;;52.17;46.17;;;;;;;14.99;86.41;101660.16;5300216;28;20103;-77
2022/04/13 13:51:02;;;;;;;24.10;18.40;;;;;;;15.10;86.17;101661.66;5297962;28;20444;-77
2022/04/13 13:53:36;;;;;;;17.67;15.98;;;;;;;15.13;86.83;101658.25;5300011;28;20031;-76
2022/04/13 13:56:08;;;;;;;18.77;15.90;;;;;;;15.22;86.56;101662.06;5305911;28;20335;-77
2022/04/13 13:58:40;;;;;;;21.55;18.13;;;;;;;15.11;87.10;101656.91;5300688;28;20057;-73
2022/04/13 14:01:11;;;;;;;22.13;18.73;;;;;;;15.18;87.76;101649.81;5298531;28;20077;-74
2022/04/13 14:03:42;;;;;;;20.73;18.58;;;;;;;15.15;87.31;101658.78;5301164;28;20040;-74
2022/04/13 14:06:14;;;;;;;24.67;20.60;;;;;;;15.17;86.86;101653.75;5286683;28;20033;-74
2022/04/13 14:08:46;;;;;;;23.80;19.90;;;;;;;15.23;87.14;101655.31;5294738;28;20029;-74
2022/04/13 14:11:20;;;;;;;22.67;20.13;;;;;;;15.22;87.58;101648.09;5301104;28;20032;-74
2022/04/13 14:13:51;;;;;;;23.92;21.33;;;;;;;15.26;87.86;101645.50;5297926;28;20048;-73
2022/04/13 14:16:22;;;;;;;28.77;25.75;;;;;;;15.35;87.72;101648.47;5298517;28;20052;-78
2022/04/13 14:18:54;;;;;;;26.67;23.85;;;;;;;15.26;87.37;101655.84;5304124;28;20104;-75
2022/04/13 14:21:29;;;;;;;26.35;23.17;;;;;;;15.27;87.95;101652.78;5299672;28;20356;-74
2022/04/13 14:24:01;;;;;;;;;;;;;;;15.38;85.96;101645.88;5305836;28;20024;-72
2022/04/13 14:26:32;;;;;;;22.58;20.25;;;;;;;15.15;86.51;101656.00;5300649;28;19935;-72
2022/04/13 14:29:03;;;;;;;27.50;23.75;;;;;;;15.13;87.51;101644.28;5302867;28;20032;-73
2022/04/13 14:31:34;;;;;;;25.40;21.90;;;;;;;15.23;87.46;101646.13;5305201;28;20036;-72
2022/04/13 14:34:06;;;;;;;23.92;21.45;;;;;;;15.30;87.74;101645.75;5300814;28;20036;-72
2022/04/13 14:36:37;;;;;;;24.98;21.33;;;;;;;15.28;88.15;101637.66;5300116;28;20023;-74
2022/04/13 14:39:09;;;;;;;24.83;22.20;;;;;;;15.37;87.53;101635.03;5284093;28;20036;-79
2022/04/13 14:41:40;;;;;;;24.05;21.63;;;;;;;15.41;87.30;101636.06;5304639;28;20493;-77
2022/04/13 14:44:11;;;;;;;24.50;21.42;;;;;;;15.41;88.09;101628.50;5290399;28;20032;-78
2022/04/13 14:46:42;;;;;;;25.25;21.70;;;;;;;15.28;87.52;101636.84;5299842;28;20467;-71
2022/04/13 14:49:23;;;;;;;26.17;23.38;;;;;;;15.20;87.86;101636.38;5303788;28;20043;-72
2022/04/13 14:51:54;;;;;;;27.48;23.17;;;;;;;15.11;88.37;101635.41;5300335;28;20399;-71
2022/04/13 14:54:26;;;;;;;25.40;22.83;;;;;;;15.20;89.19;101633.56;5298055;28;20024;-71
2022/04/13 14:56:58;;;;;;;27.98;25.35;;;;;;;15.19;90.21;101631.09;5295444;28;20044;-77
2022/04/13 14:59:29;;;;;;;27.60;23.95;;;;;;;15.06;89.24;101631.81;5300341;28;20034;-77
2022/04/13 15:02:03;;;;;;;28.05;25.33;;;;;;;15.19;90.65;101634.72;5286017;28;20043;-79
2022/04/13 15:04:35;;;;;;;26.10;23.38;;;;;;;15.22;89.51;101638.88;5286297;28;20077;-77
2022/04/13 15:07:06;;;;;;;28.15;25.52;;;;;;;15.24;89.67;101645.00;5282874;28;20029;-80
2022/04/13 15:09:37;;;;;;;27.20;24.52;;;;;;;15.29;89.19;101655.25;5297890;28;20403;-76
2022/04/13 15:12:09;;;;;;;29.02;26.05;;;;;;;15.29;89.42;101656.09;5284244;28;20023;-78
2022/04/13 15:14:40;;;;;;;30.02;26.00;;;;;;;15.25;89.35;101660.63;5285613;28;20043;-78
2022/04/13 15:17:12;;;;;;;30.83;27.67;;;;;;;15.29;89.23;101644.06;5298484;28;20033;-78
2022/04/13 15:19:43;;;;;;;29.95;26.95;;;;;;;15.38;89.68;101647.84;5292226;28;20487;-79
2022/04/13 15:22:17;;;;;;;30.92;26.33;;;;;;;15.29;88.92;101649.66;5303288;28;20494;-80
2022/04/13 15:24:48;;;;;;;29.52;26.63;;;;;;;15.02;88.74;101656.75;5292927;28;20046;-81
2022/04/13 15:27:20;;;;;;;28.98;26.17;;;;;;;14.95;88.98;101651.53;5296894;28;20037;-79
2022/04/13 15:29:52;;;;;;;29.67;26.88;;;;;;;15.02;89.42;101651.16;5303874;28;20020;-79
2022/04/13 15:32:26;;;;;;;63.78;57.42;;;;;;;15.03;90.57;101652.81;5299870;28;20016;-78
2022/04/13 15:34:57;;;;;;;35.25;31.67;;;;;;;15.13;89.47;101654.66;5287616;28;20036;-77
2022/04/13 15:37:29;;;;;;;46.97;41.97;;;;;;;15.12;89.55;101648.22;5302231;28;20019;-77
2022/04/13 15:40:01;;;;;;;31.05;27.83;;;;;;;15.15;89.83;101647.63;5301938;28;20032;-76
2022/04/13 15:42:32;;;;;;;31.98;28.55;;;;;;;15.13;88.44;101647.09;5298703;28;20025;-79
2022/04/13 15:45:04;;;;;;;31.73;28.63;;;;;;;15.22;89.64;101645.28;5289491;28;20151;-76
2022/04/13 15:47:36;;;;;;;31.00;27.83;;;;;;;15.23;89.85;101649.72;5276127;28;20079;-77
2022/04/13 15:50:09;;;;;;;30.60;27.50;;;;;;;15.29;90.38;101646.88;5297209;28;20023;-79
2022/04/13 15:52:40;;;;;;;33.05;29.60;;;;;;;15.25;89.97;101640.22;5283491;28;20319;-77
2022/04/13 15:55:15;;;;;;;31.42;28.23;;;;;;;15.30;89.91;101645.75;5298530;28;20016;-74
2022/04/13 15:57:47;;;;;;;31.25;28.08;;;;;;;15.25;89.31;101659.78;5285835;28;20044;-76
2022/04/13 16:00:21;;;;;;;32.25;28.88;;;;;;;15.20;89.36;101644.75;5302990;28;20094;-79
2022/04/13 16:02:53;;;;;;;34.08;30.50;;;;;;;15.31;88.71;101658.56;5300049;28;20054;-75
2022/04/13 16:05:25;;;;;;;32.42;29.08;;;;;;;15.15;89.67;101653.22;5283373;28;20028;-73
2022/04/13 16:07:56;;;;;;;32.28;29.02;;;;;;;15.10;90.17;101656.06;5300756;28;20016;-77
2022/04/13 16:10:28;;;;;;;32.65;29.25;;;;;;;14.97;90.50;101668.00;5303674;28;20059;-79
2022/04/13 16:13:00;;;;;;;32.15;28.73;;;;;;;15.06;91.01;101668.16;5288649;28;20107;-71
2022/04/13 16:15:31;;;;;;;34.92;31.33;;;;;;;15.01;90.41;101660.69;5299133;28;20085;-74
2022/04/13 16:18:03;;;;;;;33.35;29.63;;;;;;;15.11;90.29;101663.34;5302218;28;20360;-74
2022/04/13 16:20:35;;;;;;;34.45;30.92;;;;;;;15.02;89.89;101672.69;5284661;28;20033;-73
2022/04/13 16:23:09;;;;;;;35.60;31.90;;;;;;;14.96;90.21;101669.97;5284307;28;20027;-74
2022/04/13 16:25:41;;;;;;;35.00;31.35;;;;;;;15.00;90.74;101670.19;5287847;28;20391;-74
2022/04/13 16:28:13;;;;;;;96.63;84.35;;;;;;;15.07;91.43;101670.66;5305791;28;20118;-74
2022/04/13 16:30:44;;;;;;;36.25;32.58;;;;;;;14.92;90.85;101668.88;5307198;28;20103;-74
2022/04/13 16:33:15;;;;;;;33.60;30.40;;;;;;;15.00;91.07;101664.59;5305366;28;20063;-72
2022/04/13 16:35:48;;;;;;;35.25;31.77;;;;;;;15.00;91.33;101665.41;5287149;28;20288;-70
2022/04/13 16:38:20;;;;;;;34.10;30.67;;;;;;;15.00;91.62;101670.19;5288794;28;20036;-71
2022/04/13 16:40:52;;;;;;;36.70;32.80;;;;;;;15.03;91.52;101672.38;5306704;28;20514;-71
2022/04/13 16:43:24;;;;;;;37.45;33.78;;;;;;;15.07;91.33;101670.66;5293669;28;20162;-73
2022/04/13 16:45:55;;;;;;;35.88;32.28;;;;;;;14.96;91.28;101674.72;5293750;28;20027;-74
2022/04/13 16:48:29;;;;;;;35.00;31.42;;;;;;;14.98;90.66;101672.44;5294446;28;20016;-73
2022/04/13 16:51:01;;;;;;;37.20;33.22;;;;;;;15.14;91.56;101675.88;5299128;28;20375;-74
2022/04/13 16:53:34;;;;;;;36.58;32.90;;;;;;;15.14;90.89;101685.09;5302866;28;20036;-74
2022/04/13 16:56:06;;;;;;;34.40;31.02;;;;;;;15.16;90.65;101673.59;5273601;28;20036;-73
2022/04/13 16:58:37;;;;;;;33.97;30.27;;;;;;;15.12;90.71;101690.13;5296035;28;20068;-72
2022/04/13 17:01:08;;;;;;;35.30;31.65;;;;;;;15.17;90.11;101687.28;5291137;28;20034;-71
2022/04/13 17:03:41;;;;;;;36.20;32.22;;;;;;;15.18;90.34;101688.91;5300250;28;20033;-70
2022/04/13 17:06:12;;;;;;;35.95;32.42;;;;;;;15.27;90.30;101688.28;5296014;28;20343;-70
2022/04/13 17:08:44;;;;;;;36.17;32.38;;;;;;;15.27;89.88;101693.88;5295212;28;20040;-72
2022/04/13 17:11:16;;;;;;;33.55;30.33;;;;;;;15.30;89.43;101696.06;5296580;28;20017;-71
2022/04/13 17:13:47;;;;;;;35.83;32.10;;;;;;;15.22;89.55;101698.38;5299909;28;20028;-72
2022/04/13 17:16:20;;;;;;;36.78;33.03;;;;;;;15.35;89.86;101701.56;5303546;28;20027;-71
2022/04/13 17:18:56;;;;;;;39.25;34.28;;;;;;;15.27;90.41;101697.47;5300204;28;20111;-71
2022/04/13 17:21:27;;;;;;;;;;;;;;;15.40;89.58;101702.31;5287716;28;20021;-71
2022/04/13 17:23:58;;;;;;;36.40;32.67;;;;;;;15.30;89.81;101705.25;5305412;28;19919;-72
2022/04/13 17:26:30;;;;;;;39.00;34.95;;;;;;;15.20;91.30;101699.81;5288645;28;20020;-73
2022/04/13 17:29:02;;;;;;;36.70;32.85;;;;;;;15.14;90.51;101695.44;5290848;28;20032;-75
